createdAt,value
2022-09-10T00:18:33.345Z,23.3
2022-09-10T00:48:33.386Z,23.3
2022-09-10T01:18:33.312Z,23.3
2022-09-10T01:48:33.233Z,23.3
2022-09-10T02:18:33.270Z,23.4
2022-09-10T02:48:33.229Z,23.3
2022-09-10T03:18:33.236Z,23.4
2022-09-10T03:48:33.223Z,23.3
2022-09-10T04:18:33.208Z,23.3
2022-09-10T04:48:33.230Z,23.2
2022-09-10T05:18:33.252Z,23.2
2022-09-10T05:48:33.200Z,23.1
2022-09-10T06:18:33.222Z,23.0
2022-09-10T06:48:33.225Z,23.0
2022-09-10T07:18:33.223Z,22.7
2022-09-10T07:48:33.213Z,22.5
2022-09-10T08:18:33.178Z,22.5
2022-09-10T08:48:33.209Z,22.5
2022-09-10T09:18:33.229Z,22.4
2022-09-10T09:48:33.243Z,22.4
2022-09-10T10:18:33.264Z,22.4
2022-09-10T10:48:33.275Z,22.4
2022-09-10T11:18:33.164Z,22.3
2022-09-10T11:48:33.189Z,22.4
2022-09-10T12:18:33.197Z,23.0
2022-09-10T12:48:33.205Z,22.6
2022-09-10T13:18:33.177Z,22.8
2022-09-10T13:48:33.191Z,22.5
2022-09-10T14:18:33.172Z,22.5
2022-09-10T14:48:33.159Z,22.5
2022-09-10T15:18:33.159Z,22.4
2022-09-10T15:48:33.198Z,22.6
2022-09-10T16:18:33.157Z,23.5
2022-09-10T16:48:33.151Z,24.6
2022-09-10T17:18:33.151Z,23.1
2022-09-10T17:48:33.154Z,22.9
2022-09-10T18:18:33.169Z,22.8
2022-09-10T18:48:33.128Z,23.4
2022-09-10T19:18:33.153Z,23.5
2022-09-10T19:48:33.157Z,23.5
2022-09-10T20:18:33.120Z,23.5
2022-09-10T20:48:33.144Z,23.5
2022-09-10T21:18:33.140Z,23.4
2022-09-10T21:48:33.139Z,23.4
2022-09-10T22:18:33.197Z,23.3
2022-09-10T22:48:33.144Z,23.3
2022-09-10T23:18:33.122Z,23.3
2022-09-10T23:48:33.116Z,23.2
